Time;durP1;ratioP1;P1;durP2;ratioP2;P2;SDS_P1;SDS_P2;PMS_P1;PMS_P2;Temp;Humidity;BMP_temperature;BMP_pressure;BME280_temperature;BME280_humidity;BME280_pressure;Samples;Min_cycle;Max_cycle;Signal;HPM_P1;HPM_P2
2021/07/28 00:01:20;;;;;;;25.35;11.57;;;;;;;16.96;85.32;100844.38;5013338;28;20046;-64
2021/07/28 00:03:48;;;;;;;24.27;10.85;;;;;;;17.01;84.02;100847.31;5011216;28;20042;-64
2021/07/28 00:06:25;;;;;;;22.42;11.73;;;;;;;17.06;84.23;100842.19;4996454;28;20052;-64
2021/07/28 00:08:53;;;;;;;23.77;11.07;;;;;;;17.06;83.93;100836.00;5012424;28;20077;-64
2021/07/28 00:11:19;;;;;;;26.20;11.95;;;;;;;17.05;84.05;100832.50;5012668;28;20046;-67
2021/07/28 00:13:46;;;;;;;27.05;11.68;;;;;;;17.21;81.28;100830.56;4995185;28;20050;-64
2021/07/28 00:16:14;;;;;;;26.95;12.50;;;;;;;17.21;83.28;100830.56;4995375;28;20046;-64
2021/07/28 00:19:25;;;;;;;21.02;11.40;;;;;;;17.16;83.13;100833.81;5011919;28;20069;-64
2021/07/28 00:24:16;;;;;;;27.98;11.00;;;;;;;17.11;81.40;100822.84;4981779;28;20042;-64
2021/07/28 00:26:43;;;;;;;27.52;10.98;;;;;;;17.01;81.22;100820.50;4995079;28;20053;-64
2021/07/28 00:29:10;;;;;;;29.20;12.38;;;;;;;17.02;82.79;100815.97;5010822;28;20042;-64
2021/07/28 00:31:37;;;;;;;23.60;10.43;;;;;;;17.11;81.01;100804.09;5011141;28;20054;-64
2021/07/28 00:34:04;;;;;;;26.63;10.52;;;;;;;17.10;82.74;100809.63;4977089;28;20076;-64
2021/07/28 00:36:31;;;;;;;21.70;10.35;;;;;;;17.15;82.87;100812.56;4994890;28;20043;-64
2021/07/28 00:38:58;;;;;;;23.42;9.63;;;;;;;17.10;82.35;100805.13;4980236;28;20046;-64
2021/07/28 00:41:25;;;;;;;24.13;10.05;;;;;;;17.04;82.08;100800.53;4998010;28;20045;-64
2021/07/28 00:43:52;;;;;;;21.08;9.85;;;;;;;17.01;83.07;100809.78;5031789;28;20145;-64
2021/07/28 00:46:19;;;;;;;20.80;10.05;;;;;;;17.12;81.92;100804.91;5032062;28;20433;-65
2021/07/28 00:48:46;;;;;;;19.08;10.02;;;;;;;17.03;81.86;100806.94;5035153;28;20045;-64
2021/07/28 00:51:12;;;;;;;25.50;9.95;;;;;;;17.02;82.71;100797.22;5035748;28;20055;-64
2021/07/28 00:53:39;;;;;;;22.70;10.00;;;;;;;17.01;83.07;100795.56;5037668;28;20065;-64
2021/07/28 00:56:07;;;;;;;24.88;10.55;;;;;;;16.98;82.15;100804.00;5053247;28;20099;-64
2021/07/28 00:58:34;;;;;;;19.08;10.00;;;;;;;17.08;81.40;100802.63;5017735;28;20048;-64
2021/07/28 01:01:01;;;;;;;21.30;9.75;;;;;;;17.03;81.45;100798.88;5035499;28;20141;-64
2021/07/28 01:03:28;;;;;;;20.33;10.15;;;;;;;17.00;81.78;100789.38;5017505;28;20038;-64
2021/07/28 01:05:57;;;;;;;21.00;9.90;;;;;;;16.97;82.22;100800.50;5044207;28;20443;-64
2021/07/28 01:08:24;;;;;;;28.13;9.90;;;;;;;16.97;81.94;100795.13;5026967;28;20033;-64
2021/07/28 01:10:51;;;;;;;23.85;9.63;;;;;;;16.94;82.76;100794.69;5017426;28;20042;-64
2021/07/28 01:13:26;;;;;;;19.42;10.23;;;;;;;16.96;82.18;100793.47;5035365;28;20042;-64
2021/07/28 01:16:04;;;;;;;20.20;10.07;;;;;;;16.89;82.22;100795.25;5035009;28;20045;-64
2021/07/28 01:18:33;;;;;;;24.15;9.80;;;;;;;16.93;81.24;100795.72;5034762;28;20038;-64
2021/07/28 01:21:02;;;;;;;27.92;9.95;;;;;;;16.98;80.48;100787.91;5001775;28;20037;-64
2021/07/28 01:23:30;;;;;;;24.15;10.27;;;;;;;16.84;80.27;100782.44;5017555;28;20111;-64
2021/07/28 01:26:00;;;;;;;17.48;9.77;;;;;;;16.86;81.90;100792.97;5033984;28;20559;-64
2021/07/28 01:28:28;;;;;;;25.05;10.18;;;;;;;16.79;80.03;100784.00;5033707;28;20045;-64
2021/07/28 01:31:13;;;;;;;24.52;10.60;;;;;;;16.84;81.84;100779.75;5015458;28;20041;-64
2021/07/28 01:33:42;;;;;;;21.15;10.10;;;;;;;16.86;81.55;100775.06;5034357;28;20038;-64
2021/07/28 01:36:14;;;;;;;23.92;10.23;;;;;;;16.80;81.88;100781.16;5001379;28;20052;-64
2021/07/28 01:38:42;;;;;;;17.30;10.27;;;;;;;16.74;82.37;100783.78;5017334;28;20045;-64
2021/07/28 01:41:10;;;;;;;24.73;9.88;;;;;;;16.73;81.58;100777.59;5033672;28;20041;-64
2021/07/28 01:43:37;;;;;;;23.13;10.45;;;;;;;16.75;81.36;100767.50;5017032;28;20088;-64
2021/07/28 01:46:05;;;;;;;25.83;10.30;;;;;;;16.68;82.27;100780.00;5016499;28;20041;-64
2021/07/28 01:48:33;;;;;;;19.02;10.30;;;;;;;16.76;81.05;100760.31;5034155;28;20041;-64
2021/07/28 01:51:00;;;;;;;21.65;10.13;;;;;;;16.72;81.86;100773.28;5015273;28;20121;-64
2021/07/28 01:53:28;;;;;;;25.50;10.23;;;;;;;16.76;81.59;100776.38;5036709;28;20377;-64
2021/07/28 01:55:57;;;;;;;21.77;9.93;;;;;;;16.77;81.17;100775.34;5033368;28;20392;-64
2021/07/28 01:58:23;;;;;;;20.50;10.68;;;;;;;16.79;80.67;100770.63;5007141;28;20045;-64
2021/07/28 02:00:51;;;;;;;24.65;10.68;;;;;;;16.79;80.24;100774.16;5036085;28;20041;-64
2021/07/28 02:03:18;;;;;;;20.48;11.32;;;;;;;16.77;81.11;100770.84;5025989;28;20045;-64
2021/07/28 02:05:45;;;;;;;25.33;11.48;;;;;;;16.87;80.69;100770.53;5024877;28;20095;-64
2021/07/28 02:08:14;;;;;;;26.25;10.80;;;;;;;16.80;81.71;100769.63;5027440;28;20085;-64
2021/07/28 02:10:46;;;;;;;22.33;10.70;;;;;;;16.89;80.62;100763.13;5034224;28;20042;-64
2021/07/28 02:13:16;;;;;;;22.08;10.38;;;;;;;16.75;81.13;100767.50;5033856;28;20041;-64
2021/07/28 02:15:43;;;;;;;22.05;11.60;;;;;;;16.81;82.19;100766.75;5033979;28;20099;-64
2021/07/28 02:18:10;;;;;;;24.65;11.32;;;;;;;16.71;80.74;100771.59;5015833;28;20083;-64
2021/07/28 02:20:38;;;;;;;20.23;11.20;;;;;;;16.67;82.12;100757.75;5016235;28;20132;-64
2021/07/28 02:23:05;;;;;;;31.38;11.77;;;;;;;16.66;81.56;100771.34;5033959;28;20120;-64
2021/07/28 02:25:32;;;;;;;27.13;12.70;;;;;;;16.65;82.38;100773.19;5016419;28;20045;-64
2021/07/28 02:27:59;;;;;;;24.60;10.88;;;;;;;16.65;82.47;100770.53;5014193;28;20101;-64
2021/07/28 02:30:26;;;;;;;23.13;11.75;;;;;;;16.68;82.55;100777.34;5033610;28;20072;-64
2021/07/28 02:32:53;;;;;;;27.92;11.88;;;;;;;16.70;82.64;100776.13;5033499;28;20228;-64
2021/07/28 02:35:20;;;;;;;22.52;11.15;;;;;;;16.68;81.97;100759.44;5015856;28;20080;-64
2021/07/28 02:37:47;;;;;;;24.33;11.15;;;;;;;16.66;82.06;100768.66;5015870;28;20045;-64
2021/07/28 02:40:16;;;;;;;23.17;12.40;;;;;;;16.70;81.95;100761.94;5048461;28;20112;-64
2021/07/28 02:42:44;;;;;;;22.65;12.27;;;;;;;16.74;81.87;100767.72;5033253;28;20046;-64
2021/07/28 02:45:11;;;;;;;21.58;11.80;;;;;;;16.80;81.84;100770.44;5033420;28;20042;-64
2021/07/28 02:47:38;;;;;;;25.02;12.23;;;;;;;16.79;80.90;100766.13;5015491;28;20045;-64
2021/07/28 02:50:06;;;;;;;24.63;12.85;;;;;;;16.87;81.38;100763.31;5048647;28;20409;-64
2021/07/28 02:52:34;;;;;;;25.17;12.32;;;;;;;16.78;80.78;100759.09;5042887;28;20579;-64
2021/07/28 02:55:05;;;;;;;20.20;11.02;;;;;;;16.88;81.52;100762.28;5019328;28;20038;-64
2021/07/28 02:57:33;;;;;;;27.67;12.40;;;;;;;16.90;81.38;100762.09;5031754;28;20072;-64
2021/07/28 03:00:01;;;;;;;23.33;12.45;;;;;;;16.86;81.96;100763.50;5048823;28;20065;-64
2021/07/28 03:02:29;;;;;;;24.00;12.77;;;;;;;16.88;82.11;100756.09;5029695;28;20498;-64
2021/07/28 03:04:56;;;;;;;24.50;12.30;;;;;;;16.83;81.64;100755.88;5029214;28;20046;-64
2021/07/28 03:07:22;;;;;;;23.15;11.93;;;;;;;16.84;82.29;100744.94;5050690;28;20070;-64
2021/07/28 03:09:49;;;;;;;23.65;12.88;;;;;;;16.82;82.74;100755.00;5032545;28;20077;-64
2021/07/28 03:12:16;;;;;;;25.42;13.02;;;;;;;16.81;81.62;100748.00;5032944;28;20038;-64
2021/07/28 03:14:43;;;;;;;25.67;12.05;;;;;;;16.76;81.71;100744.25;5033178;28;20048;-64
2021/07/28 03:17:10;;;;;;;21.67;11.82;;;;;;;16.84;81.72;100747.63;5032865;28;20049;-64
2021/07/28 03:19:37;;;;;;;25.33;12.32;;;;;;;16.83;82.60;100745.16;5031709;28;20080;-64
2021/07/28 03:22:04;;;;;;;24.05;12.07;;;;;;;16.83;83.36;100739.78;5032627;28;20409;-64
2021/07/28 03:24:31;;;;;;;26.52;12.85;;;;;;;16.83;82.86;100742.47;5031068;28;20040;-64
2021/07/28 03:26:58;;;;;;;26.13;12.18;;;;;;;16.77;81.20;100735.16;4998996;28;20045;-64
2021/07/28 03:29:24;;;;;;;26.20;11.98;;;;;;;16.84;81.75;100739.56;5015192;28;20397;-64
2021/07/28 03:31:51;;;;;;;26.23;11.65;;;;;;;17.00;81.34;100738.44;5032850;28;20065;-64
2021/07/28 03:34:18;;;;;;;29.05;12.30;;;;;;;16.88;81.11;100740.88;5015252;28;20072;-64
2021/07/28 03:36:45;;;;;;;20.00;11.73;;;;;;;16.92;81.93;100735.09;4998701;28;20049;-64
2021/07/28 03:39:12;;;;;;;20.70;11.98;;;;;;;16.83;81.62;100737.94;5047648;28;20135;-64
2021/07/28 03:41:38;;;;;;;23.73;12.75;;;;;;;16.84;82.07;100742.25;5015295;28;20501;-64
2021/07/28 03:44:06;;;;;;;22.65;12.18;;;;;;;16.97;81.79;100740.69;5014891;28;20065;-64
2021/07/28 03:46:35;;;;;;;24.70;12.75;;;;;;;16.98;81.40;100740.50;5032633;28;20064;-65
2021/07/28 03:49:02;;;;;;;22.92;12.68;;;;;;;16.93;81.63;100740.25;5029733;28;20073;-63
2021/07/28 03:51:28;;;;;;;35.03;13.70;;;;;;;16.93;81.63;100740.25;5017643;28;20417;-63
2021/07/28 03:53:55;;;;;;;24.08;12.82;;;;;;;16.97;80.79;100741.53;5016022;28;20034;-63
2021/07/28 03:56:23;;;;;;;29.63;13.00;;;;;;;16.95;81.67;100745.44;5011819;28;20042;-63
2021/07/28 03:58:56;;;;;;;25.63;13.18;;;;;;;16.92;81.39;100743.97;5019515;28;20076;-63
2021/07/28 04:01:24;;;;;;;27.25;12.55;;;;;;;16.94;82.06;100743.78;4982637;28;20053;-63
2021/07/28 04:03:52;;;;;;;23.90;13.05;;;;;;;16.97;80.99;100748.72;5031702;28;20053;-63
2021/07/28 04:06:19;;;;;;;20.35;11.85;;;;;;;17.03;81.37;100753.31;5030174;28;20037;-63
2021/07/28 04:08:46;;;;;;;22.50;13.05;;;;;;;17.02;81.74;100755.16;5014423;28;20037;-63
2021/07/28 04:11:13;;;;;;;21.65;12.75;;;;;;;16.99;81.71;100752.91;5032360;28;20076;-63
2021/07/28 04:13:40;;;;;;;23.98;13.23;;;;;;;17.06;81.29;100752.91;5032415;28;20132;-63
2021/07/28 04:16:08;;;;;;;24.23;13.05;;;;;;;17.04;81.26;100757.66;4994814;28;20137;-63
2021/07/28 04:18:35;;;;;;;24.92;13.05;;;;;;;17.04;81.70;100754.97;5023144;28;20041;-63
2021/07/28 04:21:02;;;;;;;29.70;13.10;;;;;;;16.99;81.76;100754.72;5014796;28;20056;-63
2021/07/28 04:23:29;;;;;;;26.85;13.15;;;;;;;17.02;81.78;100755.16;5035423;28;20045;-63
2021/07/28 04:25:58;;;;;;;25.33;12.85;;;;;;;17.10;81.82;100756.03;5032744;28;20049;-63
2021/07/28 04:28:25;;;;;;;24.60;12.93;;;;;;;17.16;81.59;100758.75;5035817;28;20045;-63
2021/07/28 04:30:52;;;;;;;26.65;13.00;;;;;;;17.08;81.99;100756.22;5018253;28;20041;-63
2021/07/28 04:33:20;;;;;;;27.08;13.50;;;;;;;17.11;81.17;100753.16;5051104;28;20398;-63
2021/07/28 04:35:48;;;;;;;26.25;13.35;;;;;;;17.10;81.74;100762.25;5035948;28;20044;-63
2021/07/28 04:38:15;;;;;;;24.63;13.55;;;;;;;17.05;81.85;100757.47;5035899;28;20088;-63
2021/07/28 04:40:43;;;;;;;24.95;13.77;;;;;;;17.05;80.76;100768.19;5017978;28;20052;-63
2021/07/28 04:43:10;;;;;;;26.10;13.23;;;;;;;17.05;81.37;100768.19;5018199;28;20063;-63
2021/07/28 04:45:39;;;;;;;23.63;13.80;;;;;;;17.06;81.01;100772.53;5017971;28;20485;-63
2021/07/28 04:48:07;;;;;;;29.65;14.52;;;;;;;17.08;81.66;100773.16;5035400;28;20042;-63
2021/07/28 04:50:34;;;;;;;30.55;13.63;;;;;;;17.10;81.13;100772.13;5016331;28;20061;-64
2021/07/28 04:53:02;;;;;;;26.77;13.55;;;;;;;17.14;81.52;100768.84;5053654;28;20040;-64
2021/07/28 04:55:29;;;;;;;32.17;14.40;;;;;;;17.16;79.95;100776.69;5037970;28;20037;-63
2021/07/28 04:57:57;;;;;;;26.23;14.10;;;;;;;17.13;78.95;100769.03;5050901;28;20108;-63
2021/07/28 05:00:24;;;;;;;36.70;14.70;;;;;;;17.10;78.93;100772.13;5001904;28;20141;-64
2021/07/28 05:02:51;;;;;;;26.55;14.35;;;;;;;17.11;80.32;100769.25;5029052;28;20042;-64
2021/07/28 05:05:17;;;;;;;28.45;13.73;;;;;;;17.19;79.51;100761.06;5015257;28;20042;-64
2021/07/28 05:07:44;;;;;;;26.10;13.75;;;;;;;17.20;80.07;100759.19;5031883;28;20412;-64
2021/07/28 05:10:12;;;;;;;27.05;14.60;;;;;;;17.20;79.94;100757.34;5017286;28;20046;-64
2021/07/28 05:12:38;;;;;;;27.13;14.68;;;;;;;17.21;80.06;100758.19;5035187;28;20038;-64
2021/07/28 05:15:06;;;;;;;27.08;14.13;;;;;;;17.15;80.93;100757.09;5035248;28;20072;-64
2021/07/28 05:17:32;;;;;;;25.52;13.40;;;;;;;17.29;79.75;100765.22;5001036;28;20449;-64
2021/07/28 05:19:59;;;;;;;25.70;12.50;;;;;;;17.32;78.73;100762.13;5017654;28;20129;-64
2021/07/28 05:22:26;;;;;;;27.63;12.50;;;;;;;17.27;79.50;100754.69;5034975;28;20042;-64
2021/07/28 05:24:54;;;;;;;23.50;12.85;;;;;;;17.21;79.43;100756.31;5033090;28;20053;-64
2021/07/28 05:27:21;;;;;;;21.90;11.77;;;;;;;17.32;78.93;100760.31;5034935;28;20398;-64
2021/07/28 05:29:48;;;;;;;26.23;12.50;;;;;;;17.34;78.34;100754.75;5050189;28;20048;-64
2021/07/28 05:32:16;;;;;;;21.80;11.90;;;;;;;17.36;78.73;100752.69;5034943;28;20501;-64
2021/07/28 05:34:42;;;;;;;24.52;12.15;;;;;;;17.40;78.86;100745.91;5016991;28;20404;-64
2021/07/28 05:37:09;;;;;;;26.55;12.48;;;;;;;17.40;79.03;100738.69;5050076;28;20124;-64
2021/07/28 05:39:36;;;;;;;22.77;12.20;;;;;;;17.32;79.21;100744.22;5016570;28;20045;-64
2021/07/28 05:42:03;;;;;;;28.13;13.23;;;;;;;17.35;78.73;100742.97;5017399;28;20053;-63
2021/07/28 05:44:32;;;;;;;22.83;12.05;;;;;;;17.33;79.17;100743.19;5034648;28;20503;-64
2021/07/28 05:47:00;;;;;;;25.27;12.63;;;;;;;17.45;78.30;100738.91;5017784;28;20124;-64
2021/07/28 05:49:27;;;;;;;23.35;12.40;;;;;;;17.43;78.87;100746.34;5016509;28;20036;-64
2021/07/28 05:51:54;;;;;;;20.90;11.55;;;;;;;17.45;78.85;100735.41;5013053;28;20057;-64
2021/07/28 05:54:22;;;;;;;24.83;12.45;;;;;;;17.42;78.88;100733.94;4996852;28;20052;-64
2021/07/28 05:56:49;;;;;;;21.20;12.13;;;;;;;17.45;79.60;100740.78;5020954;28;20073;-64
2021/07/28 05:59:16;;;;;;;26.63;12.73;;;;;;;17.42;79.71;100733.94;5016549;28;20128;-64
2021/07/28 06:01:43;;;;;;;25.27;12.18;;;;;;;17.38;79.72;100739.91;5033771;28;20048;-64
2021/07/28 06:04:10;;;;;;;26.85;12.60;;;;;;;17.44;79.29;100731.91;5033938;28;20037;-64
2021/07/28 06:06:36;;;;;;;23.65;11.93;;;;;;;17.46;79.59;100734.38;5004315;28;20037;-64
2021/07/28 06:09:03;;;;;;;22.48;11.63;;;;;;;17.59;79.46;100737.13;5032524;28;20068;-64
2021/07/28 06:11:31;;;;;;;25.00;12.40;;;;;;;17.62;78.80;100730.53;5016573;28;20120;-64
2021/07/28 06:13:57;;;;;;;22.75;11.73;;;;;;;17.77;78.59;100730.34;5016649;28;20057;-65
2021/07/28 06:16:24;;;;;;;21.25;12.38;;;;;;;17.78;79.05;100732.03;5049276;28;20049;-64
2021/07/28 06:18:51;;;;;;;26.95;11.82;;;;;;;17.69;78.39;100736.72;5033768;28;20052;-64
2021/07/28 06:21:18;;;;;;;23.33;12.40;;;;;;;17.61;78.57;100732.38;5025860;28;20116;-64
2021/07/28 06:23:46;;;;;;;26.85;11.48;;;;;;;17.71;78.76;100733.84;5031563;28;20045;-64
2021/07/28 06:26:13;;;;;;;26.13;11.90;;;;;;;17.72;79.15;100736.34;5031138;28;20041;-64
2021/07/28 06:28:40;;;;;;;23.02;12.32;;;;;;;17.78;78.54;100726.66;5014968;28;20045;-64
2021/07/28 06:31:07;;;;;;;19.17;11.23;;;;;;;17.75;78.61;100735.09;5015705;28;20037;-64
2021/07/28 06:33:34;;;;;;;26.15;11.50;;;;;;;17.74;78.99;100741.50;5015725;28;20466;-64
2021/07/28 06:36:01;;;;;;;24.05;12.02;;;;;;;17.81;78.94;100737.81;5031351;28;20164;-64
2021/07/28 06:38:27;;;;;;;23.90;11.55;;;;;;;17.76;79.54;100742.94;5031828;28;20437;-64
2021/07/28 06:40:54;;;;;;;22.67;11.32;;;;;;;17.77;78.73;100746.47;5015417;28;20140;-64
2021/07/28 06:43:22;;;;;;;25.00;12.50;;;;;;;17.78;80.50;100748.94;5033173;28;20038;-64
2021/07/28 06:45:49;;;;;;;23.40;12.90;;;;;;;17.68;81.19;100745.78;5031912;28;20045;-64
2021/07/28 06:48:16;;;;;;;26.45;13.18;;;;;;;17.80;81.37;100743.38;5030770;28;20092;-65
2021/07/28 06:50:43;;;;;;;30.35;12.48;;;;;;;17.77;80.72;100741.09;5015308;28;20498;-64
2021/07/28 06:53:10;;;;;;;24.38;12.25;;;;;;;17.87;81.08;100735.38;5003161;28;20042;-64
2021/07/28 06:55:37;;;;;;;25.42;12.57;;;;;;;17.81;81.46;100737.00;5013027;28;20097;-64
2021/07/28 06:58:04;;;;;;;24.48;12.38;;;;;;;17.80;81.21;100743.38;5028225;28;20042;-68
2021/07/28 07:00:32;;;;;;;28.48;11.30;;;;;;;17.71;79.43;100736.53;5013167;28;20520;-68
2021/07/28 07:02:59;;;;;;;22.48;11.40;;;;;;;17.81;80.66;100731.63;5020254;28;20049;-68
2021/07/28 07:05:27;;;;;;;21.63;10.60;;;;;;;17.87;80.54;100735.38;5024081;28;20038;-68
2021/07/28 07:07:54;;;;;;;25.50;12.90;;;;;;;17.94;78.76;100738.91;5028957;28;20184;-68
2021/07/28 07:10:21;;;;;;;22.40;9.88;;;;;;;18.01;78.81;100729.03;5032879;28;20576;-64
2021/07/28 07:12:48;;;;;;;19.02;9.98;;;;;;;18.19;79.70;100725.72;5032669;28;20041;-64
2021/07/28 07:15:15;;;;;;;19.90;9.50;;;;;;;18.17;79.86;100730.47;5039276;28;20037;-64
2021/07/28 07:17:42;;;;;;;28.83;10.98;;;;;;;18.35;80.41;100728.00;5051236;28;20049;-64
2021/07/28 07:20:10;;;;;;;35.92;12.35;;;;;;;18.33;79.89;100738.13;5022110;28;20133;-64
2021/07/28 07:22:37;;;;;;;21.92;11.13;;;;;;;18.41;79.30;100739.81;5032879;28;20449;-64
2021/07/28 07:25:05;;;;;;;22.92;11.05;;;;;;;18.55;80.33;100732.56;5029422;28;20053;-64
2021/07/28 07:27:32;;;;;;;21.67;10.80;;;;;;;18.56;79.02;100739.63;5032269;28;20398;-64
2021/07/28 07:29:59;;;;;;;22.85;10.88;;;;;;;18.57;78.52;100736.72;5010052;28;20092;-64
2021/07/28 07:32:29;;;;;;;23.15;10.95;;;;;;;18.67;77.48;100727.41;4997665;28;20379;-65
2021/07/28 07:34:58;;;;;;;28.08;10.93;;;;;;;18.73;76.63;100735.44;5011860;28;20041;-65
2021/07/28 07:37:26;;;;;;;25.98;10.80;;;;;;;18.60;79.94;100744.34;5018167;28;20054;-65
2021/07/28 07:39:53;;;;;;;22.08;10.70;;;;;;;18.67;78.08;100746.22;5020591;28;20080;-65
2021/07/28 07:42:20;;;;;;;21.38;10.93;;;;;;;18.50;81.02;100756.53;5011384;28;20042;-65
2021/07/28 07:44:48;;;;;;;23.52;10.75;;;;;;;18.25;80.11;100750.97;5030001;28;20783;-65
2021/07/28 07:47:18;;;;;;;14.48;7.18;;;;;;;17.99;78.08;100772.16;5031120;28;20055;-65
2021/07/28 07:49:45;;;;;;;15.55;6.38;;;;;;;17.73;79.14;100797.00;5014677;28;20045;-65
2021/07/28 07:52:12;;;;;;;16.13;6.00;;;;;;;17.56;79.90;100783.09;5032265;28;20046;-64
2021/07/28 07:54:39;;;;;;;17.98;6.28;;;;;;;17.40;80.61;100796.84;5011604;28;20111;-64
2021/07/28 07:57:06;;;;;;;19.60;6.85;;;;;;;17.35;83.12;100797.41;5016813;28;20043;-64
2021/07/28 07:59:32;;;;;;;16.48;6.32;;;;;;;17.37;80.56;100795.41;5035493;28;20076;-64
2021/07/28 08:02:00;;;;;;;12.43;6.00;;;;;;;17.21;80.81;100787.66;4993119;28;20073;-65
2021/07/28 08:04:27;;;;;;;12.15;6.40;;;;;;;17.29;82.48;100792.03;5033608;28;20120;-65
2021/07/28 08:06:54;;;;;;;13.25;6.60;;;;;;;17.31;80.18;100795.34;5029559;28;20490;-64
2021/07/28 08:09:20;;;;;;;18.45;6.82;;;;;;;17.21;82.17;100785.00;5027670;28;21012;-64
2021/07/28 08:11:47;;;;;;;17.90;7.30;;;;;;;17.19;82.11;100792.38;5013092;28;20069;-65
2021/07/28 08:14:14;;;;;;;14.20;6.18;;;;;;;17.27;81.68;100776.16;5015427;28;20493;-65
2021/07/28 08:16:41;;;;;;;15.60;6.60;;;;;;;17.19;82.93;100773.63;5029171;28;20041;-64
2021/07/28 08:19:08;;;;;;;16.70;6.80;;;;;;;17.23;82.50;100778.41;5015534;28;20052;-65
2021/07/28 08:21:35;;;;;;;15.20;6.82;;;;;;;17.41;82.19;100767.16;4997249;28;20108;-65
2021/07/28 08:24:02;;;;;;;17.23;7.78;;;;;;;17.48;82.81;100767.16;5034529;28;20052;-65
2021/07/28 08:26:29;;;;;;;18.95;7.22;;;;;;;17.52;81.27;100775.66;5030966;28;20096;-65
2021/07/28 08:28:55;;;;;;;14.40;7.68;;;;;;;17.60;81.74;100776.31;5034686;28;20129;-64
2021/07/28 08:31:22;;;;;;;19.35;8.05;;;;;;;17.62;82.21;100776.94;5000207;28;20038;-65
2021/07/28 08:34:01;;;;;;;18.92;9.05;;;;;;;17.53;82.07;100772.78;5016592;28;20045;-65
2021/07/28 08:36:48;;;;;;;16.48;8.30;;;;;;;17.46;82.61;100786.16;5031724;28;20136;-66
2021/07/28 08:39:15;;;;;;;18.15;9.98;;;;;;;17.59;82.35;100782.72;5034282;28;20053;-66
2021/07/28 08:41:47;;;;;;;21.75;8.55;;;;;;;17.73;80.94;100772.84;4998431;28;20100;-65
2021/07/28 08:44:19;;;;;;;19.67;9.82;;;;;;;17.86;80.35;100780.16;5013975;28;20060;-65
2021/07/28 08:46:49;;;;;;;24.65;11.52;;;;;;;17.93;80.35;100777.50;5012280;28;20042;-66
2021/07/28 08:49:17;;;;;;;23.15;7.72;;;;;;;18.02;77.89;100774.44;5014664;28;20041;-65
2021/07/28 08:51:44;;;;;;;17.55;8.45;;;;;;;18.08;80.95;100783.56;5033078;28;20041;-66
2021/07/28 08:54:12;;;;;;;17.85;7.60;;;;;;;18.06;79.09;100780.22;5032536;28;20567;-65
2021/07/28 08:56:40;;;;;;;17.85;8.00;;;;;;;18.38;79.37;100777.81;5016290;28;20045;-66
2021/07/28 08:59:27;;;;;;;17.45;8.30;;;;;;;18.57;79.18;100762.75;5015499;28;20576;-65
2021/07/28 09:01:56;;;;;;;18.95;8.00;;;;;;;18.55;78.74;100770.19;5016075;28;20132;-65
2021/07/28 09:04:25;;;;;;;15.90;7.30;;;;;;;18.77;76.11;100766.28;4992216;28;20038;-66
2021/07/28 09:06:53;;;;;;;16.33;6.78;;;;;;;18.76;74.50;100767.28;5039185;28;20037;-65
2021/07/28 09:09:23;;;;;;;19.45;7.70;;;;;;;18.89;76.45;100771.88;5033286;28;20049;-66
2021/07/28 09:12:04;;;;;;;15.55;6.75;;;;;;;18.97;74.10;100765.44;5037622;28;20049;-65
2021/07/28 09:14:52;;;;;;;14.82;7.05;;;;;;;18.98;75.01;100769.78;5026967;28;20525;-65
2021/07/28 09:17:27;;;;;;;18.92;7.03;;;;;;;19.24;74.10;100770.78;5034032;28;20049;-64
2021/07/28 09:20:04;;;;;;;19.75;7.43;;;;;;;19.38;73.04;100770.53;5030984;28;20038;-64
2021/07/28 09:22:42;;;;;;;15.30;6.75;;;;;;;19.36;73.89;100779.84;5002385;28;20125;-64
2021/07/28 09:25:33;;;;;;;16.17;7.15;;;;;;;19.52;73.89;100767.81;5026317;28;20120;-66
2021/07/28 09:28:00;;;;;;;15.57;7.30;;;;;;;19.75;72.87;100775.38;5033009;28;20045;-65
2021/07/28 09:30:31;;;;;;;15.18;6.30;;;;;;;19.74;70.60;100771.88;5031664;28;20053;-65
2021/07/28 09:33:15;;;;;;;16.05;6.47;;;;;;;19.97;71.13;100775.91;4996531;28;20096;-65
2021/07/28 09:38:32;;;;;;;19.65;7.45;;;;;;;20.22;67.94;100756.28;5114881;27;20415;-64
2021/07/28 09:41:20;;;;;;;18.48;7.95;;;;;;;20.53;68.17;100761.63;5077437;28;20043;-65
2021/07/28 09:43:51;;;;;;;13.43;5.72;;;;;;;20.65;63.55;100761.81;5097653;28;20044;-67
2021/07/28 09:46:21;;;;;;;14.98;5.80;;;;;;;20.65;64.98;100763.69;5083385;28;20050;-66
2021/07/28 09:48:49;;;;;;;15.57;5.72;;;;;;;20.52;65.05;100759.19;5101732;28;20050;-65
2021/07/28 09:51:38;;;;;;;13.35;5.70;;;;;;;21.00;64.32;100757.75;5073481;28;20048;-67
2021/07/28 09:54:13;;;;;;;18.38;5.45;;;;;;;20.98;63.69;100762.56;5082009;28;20093;-65
2021/07/28 09:56:58;;;;;;;11.48;4.97;;;;;;;21.22;60.95;100745.47;5095798;28;20036;-66
2021/07/28 09:59:26;;;;;;;16.58;5.10;;;;;;;21.39;61.21;100742.19;5088945;28;20052;-65
2021/07/28 10:01:57;;;;;;;;;;;;;;;21.49;59.85;100747.09;5090422;28;20078;-66
2021/07/28 10:04:39;;;;;;;;;;;;;;;21.59;59.98;100734.72;5088409;28;19924;-66
2021/07/28 10:07:05;;;;;;;24.50;10.80;;;;;;;21.89;58.98;100733.91;5096765;28;19926;-66
2021/07/28 10:09:37;;;;;;;16.55;8.88;;;;;;;21.96;58.76;100733.81;5089975;28;20047;-66
2021/07/28 10:12:04;;;;;;;11.23;5.03;;;;;;;22.30;58.36;100734.16;5097737;28;20078;-66
2021/07/28 10:14:34;;;;;;;17.17;4.63;;;;;;;21.98;55.13;100742.50;5073248;28;20119;-66
2021/07/28 10:17:02;;;;;;;16.88;6.13;;;;;;;21.69;57.32;100741.44;5093240;28;20051;-67
2021/07/28 10:19:31;;;;;;;11.20;4.65;;;;;;;21.95;55.03;100735.66;5058759;28;20382;-67
2021/07/28 10:22:00;;;;;;;16.13;4.43;;;;;;;22.22;54.24;100732.56;5037860;28;20078;-67
2021/07/28 10:24:27;;;;;;;9.52;4.22;;;;;;;22.30;54.10;100721.44;5080964;28;20044;-67
2021/07/28 10:26:55;;;;;;;11.68;4.43;;;;;;;22.58;53.19;100725.38;5107457;28;20503;-66
2021/07/28 10:29:24;;;;;;;9.65;4.05;;;;;;;22.68;52.48;100730.19;5108166;28;20408;-66
2021/07/28 10:31:53;;;;;;;9.85;4.00;;;;;;;22.65;50.53;100730.66;5088985;28;20509;-65
2021/07/28 10:34:24;;;;;;;10.63;3.75;;;;;;;22.83;51.23;100721.59;5108412;28;20040;-66
2021/07/28 10:36:53;;;;;;;13.90;4.50;;;;;;;23.11;51.36;100718.22;5093391;28;20525;-66
2021/07/28 10:39:50;;;;;;;12.27;3.70;;;;;;;23.25;49.98;100726.88;5108539;28;20044;-66
2021/07/28 10:42:19;;;;;;;9.07;3.60;;;;;;;23.42;50.59;100716.97;5107454;28;20092;-66
2021/07/28 10:45:07;;;;;;;9.05;3.90;;;;;;;23.05;48.60;100730.81;5056819;28;20397;-65
2021/07/28 10:47:41;;;;;;;11.07;3.97;;;;;;;23.01;49.96;100716.06;5094173;28;20040;-66
2021/07/28 10:50:43;;;;;;;7.13;3.05;;;;;;;22.58;46.89;100720.78;5109912;28;20139;-65
2021/07/28 10:53:10;;;;;;;11.48;3.50;;;;;;;22.59;49.25;100718.91;5088142;28;20076;-66
2021/07/28 10:56:09;;;;;;;9.82;3.45;;;;;;;22.74;49.80;100721.97;5077886;28;20035;-67
2021/07/28 10:58:36;;;;;;;9.57;3.17;;;;;;;22.58;49.11;100720.78;5094309;28;20044;-66
2021/07/28 11:01:03;;;;;;;16.05;3.65;;;;;;;22.38;48.33;100714.91;5094557;28;20408;-67
2021/07/28 11:03:31;;;;;;;10.38;3.50;;;;;;;22.35;49.02;100705.38;5087605;28;20051;-68
2021/07/28 11:06:16;;;;;;;13.40;3.40;;;;;;;22.39;49.25;100720.09;5050818;28;20135;-66
2021/07/28 11:08:43;;;;;;;11.13;3.58;;;;;;;22.46;50.97;100705.63;5091582;28;20051;-67
2021/07/28 11:11:19;;;;;;;9.75;3.47;;;;;;;22.51;47.95;100711.16;5087196;28;20512;-66
2021/07/28 11:13:46;;;;;;;9.13;3.60;;;;;;;22.41;48.60;100699.03;5074322;28;20414;-66
2021/07/28 11:16:14;;;;;;;7.22;3.15;;;;;;;22.27;48.30;100708.44;5092609;28;20518;-66
2021/07/28 11:18:44;;;;;;;9.32;3.67;;;;;;;22.41;47.88;100701.75;5092825;28;20044;-66
2021/07/28 11:21:17;;;;;;;10.05;3.20;;;;;;;22.35;49.15;100699.16;5091729;28;20036;-67
2021/07/28 11:23:48;;;;;;;9.80;3.72;;;;;;;22.58;49.22;100703.75;5093164;28;20443;-66
2021/07/28 11:26:19;;;;;;;12.05;3.60;;;;;;;22.49;48.55;100699.75;5084275;28;20056;-67